Du har inga inställningar för hoppväder.nu

Hoppväder.nu

Senast uppdaterat 07:24

UTC-tid

2021-01-17 kl. 06:24


Sol och måne

Solen går upp 8:54 och går ner 15:07 (beräknade cirkatider)
Nästa fullmåne blir om 11 dagar (2021-01-28)

METAR

ESNN (Sundsvall)
(34 minuter sedan)
ESNN 170550Z AUTO VRB02KT 9999 OVC034/// M09/M10 Q1017=



ESNK (Kramfors)
(34 minuter sedan)
ESNK 170550Z AUTO 34004KT 9999 NCD M15/M17 Q1017=



ESNO (Örnsköldsvik)
(34 minuter sedan)
ESNO 170550Z AUTO 31004KT 9999 SCT030/// M17/M18 Q1015=



ESNY (Söderhamn)
ESNY NIL=



ESNZ (Östersund)
(34 minuter sedan)
ESNZ 170550Z AUTO 00000KT 0900 R12/P1500N R30/P1500N FEW001/// OVC002/// M19/M21 Q1011=



TAF

ESNN (Sundsvall)
ESNN



ESNK (Kramfors)
ESNK



ESNO (Örnsköldsvik)
ESNO



ESNY (Söderhamn)
ESNY



ESNZ (Östersund)
ESNZ





Kodnycklar till TAF och METAR






LHP

(Sundsvall är område se42d i Delområde 4)

Översikt

ÖVERSIKT FÖR OMRÅDE se4 UTFÄRDAD 170435

GÄLLANDE DEN 17 JANUARI 2021 MELLAN 05 OCH 13 UTC


Väderöversikt

En högtrycksrygg täcker Norrland. I Norrbottensfjällen förekommer växlande mängd stratocumulus moln, i övrigt är det klart eller nästan klart väder över resten av kalfjällen. Mest svaga växlande vindar men i södra Jämtlandsfjällen och Härjedalsfjällen måttlig vind mellan väst och sydväst.

Sikt under 5 kilometer eller molnbas under 1000 fot
05-13UTC: Hela området utom se42


Måttlig eller svår isbildning
05-13UTC: I hela området


Måttlig eller svår turbulens
Väntas inte förekomma under perioden

Delområde 4

PROGNOS FÖR OMRÅDE se42 UTFÄRDAD 170435
GÄLLANDE DEN 17 JANUARI 2021 MELLAN 05 OCH 13 UTC

Måttlig eller svår turbulens
05-13UTC: I hela området: Väntas inte förekomma under perioden

Måttlig eller svår isbildning
05-13UTC: I hela området: måttlig isbildning 3500ft - FL080

Sikt/Väder/Moln
05-13UTC: Område se42c: Sikt 5km - >8km. Molnbas 1000ft - >2000ft.
Område se42b,se42a,se42e,se42d: Sikt >8km. Molnbas >2000ft.


Molnöversida
05-13UTC: I hela området: Molnöversida FL080.

CB/TCU Moln
05-13UTC: I hela området: Väntas inte förekomma under perioden

Nollgradersisoterm
05-13UTC: Noll grader SFC.

Vind vid marken
05-07UTC: Område se42a: SV-V/0-9 knop, byar upp till 12 knop.
Område se42d: SV-V/0-6 knop, byar upp till 13 knop.
Område se42c: SV-V/2-11 knop, byar upp till 15 knop.
Område se42b: SV-V/1-10 knop, byar upp till 13 knop.

05-09UTC: Område se42e: SV-V/0-6 knop, byar upp till 14 knop.

07-09UTC: Område se42a: SV-V/0-12 knop, byar upp till 16 knop.
Område se42d: SV-V/0-7 knop, byar upp till 14 knop.
Område se42c: SV-V/5-13 knop, byar upp till 17 knop.

07-13UTC: Område se42b: SV-V/1-13 knop, byar upp till 17 knop.

09-11UTC: Område se42a: SV-V/0-13 knop, byar upp till 17 knop.
Område se42d: SV-V/0-9 knop, byar upp till 19 knop.
Område se42e: SV-V/0-7 knop, byar upp till 16 knop.
Område se42c: SV-V/8-13 knop.

11-13UTC: Område se42c: V/8-13 knop.
Område se42a: SV-V/0-15 knop, byar upp till 20 knop.
Område se42e: SV-V/0-9 knop, byar upp till 20 knop.
Område se42d: SV-V/0-9 knop, byar upp till 21 knop.


Genomsnittlig vind och temperatur för området
2000ft:
05-07UTC: 240/9kt -4.
07-09UTC: 240/12kt -4.
09-11UTC: 250/15kt -5.
11-13UTC: 250/17kt -5.

FL50:
05-07UTC: 230/8kt -10.
07-09UTC: 230/9kt -10.
09-11UTC: 230/10kt -10.
11-13UTC: 240/10kt -9.

FL100:
05-07UTC: 340/14kt -14.
07-13UTC: 330/14kt -14.

Lägsta QNH
1010 hPa.

OBS! endast utbredd måttlig eller svår isbildning och turbulens prognostiseras i LLF.
Avsaknad av isbildning och turbulens i prognosen utesluter inte förekomst av lätt isbildning och turbulens.
För indikation på lätt isbildning, var vänlig kontrollera om prognosen för molntopp ligger högre än nollgradersisotermen.
Förekomst av TCU eller CB medför alltid en risk för måttlig eller svår isbildning och turbulens även om det inte framgår explicit av prognosen.







Spotting

Hur fungerar spotthjälpen och Vindkartan?

Markvind är ca 0-3 m/s med byar på 7 m/s.
Vind på 600 m ca 5 m/s.
Vind på 1500 m ca 4 m/s.
Vind på 3000 m ca 7 m/s.
Feppen flyger ca 29 m/s över marken på finalen.
Du driver ca 324 m bakåt i frifall. (432 m)
Lämplig spot är 1 sekunder eller 29 m efter gropen.
(5 s eller 144 m)
För små grupper eller ensamhoppare bör man vänta 5-7 sekunder mellan grupperna.
För större grupper bör man vänta 10-13 sekunder mellan grupperna.


Vindkartan

Senast uppdaterad 07:24




All data kommer från LFV.se